createdAt,value
2018-09-18T00:01:23.136Z,3.33
2018-09-18T00:03:53.802Z,3.35
2018-09-18T00:06:24.471Z,3.30
2018-09-18T00:08:55.153Z,3.27
2018-09-18T00:11:25.785Z,3.40
2018-09-18T00:13:56.677Z,3.58
2018-09-18T00:16:27.367Z,3.27
2018-09-18T00:18:58.006Z,3.08
2018-09-18T00:21:28.663Z,3.12
2018-09-18T00:23:59.347Z,3.00
2018-09-18T00:26:30.040Z,2.95
2018-09-18T00:29:00.748Z,3.22
2018-09-18T00:31:31.407Z,3.42
2018-09-18T00:34:02.079Z,3.30
2018-09-18T00:36:32.724Z,3.55
2018-09-18T00:39:04.117Z,3.10
2018-09-18T00:41:34.767Z,3.30
2018-09-18T00:44:05.439Z,3.10
2018-09-18T00:46:36.084Z,3.52
2018-09-18T00:49:06.763Z,3.30
2018-09-18T00:51:37.403Z,3.08
2018-09-18T00:54:08.107Z,3.58
2018-09-18T00:56:38.766Z,3.15
2018-09-18T00:59:09.480Z,3.85
2018-09-18T01:01:40.116Z,3.83
2018-09-18T01:04:10.799Z,3.45
2018-09-18T01:06:41.663Z,3.37
2018-09-18T01:09:12.385Z,3.75
2018-09-18T01:11:43.043Z,3.47
2018-09-18T01:14:13.725Z,3.67
2018-09-18T01:16:44.391Z,3.47
2018-09-18T01:19:15.041Z,3.80
2018-09-18T01:21:45.832Z,3.37
2018-09-18T01:24:16.527Z,3.67
2018-09-18T01:26:47.185Z,3.83
2018-09-18T01:29:17.864Z,3.65
2018-09-18T01:31:48.515Z,3.60
2018-09-18T01:34:19.188Z,3.65
2018-09-18T01:36:49.841Z,3.87
2018-09-18T01:39:20.513Z,3.60
2018-09-18T01:41:51.151Z,3.80
2018-09-18T01:44:21.823Z,3.92
2018-09-18T01:46:52.508Z,3.70
2018-09-18T01:49:23.181Z,4.00
2018-09-18T01:51:53.858Z,4.03
2018-09-18T01:54:24.528Z,3.72
2018-09-18T01:56:55.203Z,3.35
2018-09-18T01:59:25.920Z,4.42
2018-09-18T02:01:56.596Z,3.70
2018-09-18T02:04:27.270Z,3.75
2018-09-18T02:06:57.947Z,3.40
2018-09-18T02:09:28.616Z,3.77
2018-09-18T02:11:59.292Z,3.52
2018-09-18T02:14:29.944Z,4.28
2018-09-18T02:17:00.626Z,3.67
2018-09-18T02:19:31.274Z,3.90
2018-09-18T02:22:02.142Z,3.70
2018-09-18T02:24:33.022Z,3.58
2018-09-18T02:27:03.708Z,4.17
2018-09-18T02:29:34.363Z,3.80
2018-09-18T02:32:05.389Z,4.20
2018-09-18T02:34:36.343Z,3.70
2018-09-18T02:37:06.976Z,3.80
2018-09-18T02:39:37.644Z,3.92
2018-09-18T02:42:08.291Z,3.47
2018-09-18T02:44:38.974Z,3.77
2018-09-18T02:47:09.640Z,4.00
2018-09-18T02:49:40.310Z,4.28
2018-09-18T02:52:10.947Z,3.40
2018-09-18T02:54:41.881Z,3.50
2018-09-18T02:57:12.514Z,4.17
2018-09-18T02:59:43.195Z,3.80
2018-09-18T03:02:13.841Z,4.08
2018-09-18T03:04:44.511Z,3.83
2018-09-18T03:07:15.224Z,4.28
2018-09-18T03:09:45.894Z,3.60
2018-09-18T03:12:16.556Z,3.55
2018-09-18T03:14:47.263Z,3.90
2018-09-18T03:17:18.131Z,3.80
2018-09-18T03:19:48.816Z,4.20
2018-09-18T03:22:19.677Z,4.10
2018-09-18T03:24:50.339Z,3.80
2018-09-18T03:27:21.102Z,3.75
2018-09-18T03:29:51.992Z,4.12
2018-09-18T03:32:22.639Z,3.77
2018-09-18T03:34:53.368Z,4.10
2018-09-18T03:37:24.003Z,3.40
2018-09-18T03:39:54.689Z,3.67
2018-09-18T03:42:25.513Z,4.20
2018-09-18T03:44:56.195Z,3.70
2018-09-18T03:47:26.845Z,4.28
2018-09-18T03:49:57.530Z,4.28
2018-09-18T03:52:28.221Z,3.92
2018-09-18T03:54:58.892Z,4.22
2018-09-18T03:57:29.539Z,3.80
2018-09-18T04:00:00.213Z,4.33
2018-09-18T04:02:30.859Z,4.30
2018-09-18T04:05:01.546Z,4.28
2018-09-18T04:07:32.459Z,4.30
2018-09-18T04:10:03.480Z,4.33
2018-09-18T04:12:34.159Z,5.42
2018-09-18T04:15:05.231Z,5.42
2018-09-18T04:17:35.948Z,4.55
2018-09-18T04:20:07.116Z,4.03
2018-09-18T04:22:37.816Z,3.58
2018-09-18T04:25:08.651Z,4.08
2018-09-18T04:27:39.729Z,3.85
2018-09-18T04:30:10.388Z,3.85
2018-09-18T04:32:41.069Z,3.90
2018-09-18T04:35:11.724Z,4.15
2018-09-18T04:37:42.388Z,4.17
2018-09-18T04:40:13.036Z,3.47
2018-09-18T04:42:43.720Z,4.12
2018-09-18T04:45:14.414Z,4.25
2018-09-18T04:47:45.097Z,4.03
2018-09-18T04:50:15.740Z,4.40
2018-09-18T04:52:46.416Z,4.37
2018-09-18T04:55:17.601Z,4.08
2018-09-18T04:57:48.376Z,4.00
2018-09-18T05:00:19.033Z,3.83
2018-09-18T05:02:49.715Z,4.20
2018-09-18T05:05:20.424Z,4.33
2018-09-18T05:07:52.844Z,4.20
2018-09-18T05:10:23.835Z,4.58
2018-09-18T05:12:54.616Z,4.10
2018-09-18T05:15:25.286Z,4.20
2018-09-18T05:17:55.956Z,4.12
2018-09-18T05:20:26.636Z,3.65
2018-09-18T05:22:57.319Z,4.37
2018-09-18T05:25:27.975Z,4.60
2018-09-18T05:27:58.848Z,4.22
2018-09-18T05:30:29.512Z,4.42
2018-09-18T05:33:00.315Z,4.55
2018-09-18T05:35:30.980Z,4.60
2018-09-18T05:38:01.661Z,4.33
2018-09-18T05:40:32.328Z,4.33
2018-09-18T05:43:02.981Z,4.90
2018-09-18T05:45:33.654Z,4.58
2018-09-18T05:48:04.377Z,4.72
2018-09-18T05:50:35.208Z,4.53
2018-09-18T05:53:06.640Z,4.12
2018-09-18T05:55:37.288Z,4.53
2018-09-18T05:58:07.956Z,3.72
2018-09-18T06:00:38.994Z,4.22
2018-09-18T06:03:10.013Z,4.12
2018-09-18T06:05:40.663Z,4.53
2018-09-18T06:08:11.364Z,5.12
2018-09-18T06:10:42.016Z,3.98
2018-09-18T06:13:12.700Z,4.10
2018-09-18T06:15:43.343Z,4.37
2018-09-18T06:18:14.051Z,3.77
2018-09-18T06:20:44.991Z,4.85
2018-09-18T06:23:15.707Z,3.50
2018-09-18T06:25:52.983Z,4.60
2018-09-18T06:28:23.628Z,4.47
2018-09-18T06:30:54.347Z,4.90
2018-09-18T06:33:25.044Z,4.03
2018-09-18T06:35:55.740Z,4.60
2018-09-18T06:38:26.603Z,4.62
2018-09-18T06:40:57.295Z,4.53
2018-09-18T06:43:27.985Z,4.87
2018-09-18T06:45:58.660Z,4.45
2018-09-18T06:48:29.331Z,4.40
2018-09-18T06:50:59.985Z,4.45
2018-09-18T06:53:30.676Z,4.70
2018-09-18T06:56:01.321Z,4.67
2018-09-18T06:58:32.041Z,5.17
2018-09-18T07:01:02.686Z,4.72
2018-09-18T07:03:33.352Z,4.10
2018-09-18T07:06:03.992Z,4.65
2018-09-18T07:08:35.044Z,4.15
2018-09-18T07:11:06.199Z,4.35
2018-09-18T07:13:37.660Z,4.37
2018-09-18T07:16:08.571Z,4.10
2018-09-18T07:18:39.251Z,4.33
2018-09-18T07:21:09.929Z,4.20
2018-09-18T07:23:41.166Z,4.22
2018-09-18T07:26:11.804Z,3.90
2018-09-18T07:28:42.471Z,3.90
2018-09-18T07:31:13.139Z,3.92
2018-09-18T07:33:43.874Z,3.67
2018-09-18T07:36:14.775Z,4.25
2018-09-18T07:38:45.745Z,3.65
2018-09-18T07:41:16.415Z,3.70
2018-09-18T07:43:47.084Z,3.92
2018-09-18T07:46:17.788Z,3.75
2018-09-18T07:48:48.499Z,3.55
2018-09-18T07:51:19.585Z,3.58
2018-09-18T07:53:50.234Z,3.83
2018-09-18T07:56:20.937Z,3.42
2018-09-18T07:58:52.782Z,3.70
2018-09-18T08:01:24.284Z,3.80
2018-09-18T08:03:54.520Z,3.90
2018-09-18T08:06:25.801Z,3.70
2018-09-18T08:08:56.742Z,3.83
2018-09-18T08:11:27.379Z,3.62
2018-09-18T08:13:58.048Z,3.85
2018-09-18T08:16:28.896Z,3.72
2018-09-18T08:18:59.682Z,4.10
2018-09-18T08:21:30.452Z,4.08
2018-09-18T08:24:01.137Z,3.85
2018-09-18T08:26:31.802Z,4.05
2018-09-18T08:29:02.476Z,4.10
2018-09-18T08:31:33.145Z,3.90
2018-09-18T08:34:03.835Z,3.83
2018-09-18T08:36:34.196Z,3.63
2018-09-18T08:39:07.983Z,3.80
2018-09-18T08:41:39.007Z,3.60
2018-09-18T08:44:09.541Z,3.70
2018-09-18T08:46:39.948Z,3.60
2018-09-18T08:49:10.535Z,3.57
2018-09-18T08:51:40.982Z,3.77
2018-09-18T08:54:11.510Z,3.93
2018-09-18T08:56:42.240Z,3.87
2018-09-18T08:59:12.824Z,4.00
2018-09-18T09:01:43.188Z,3.53
2018-09-18T09:04:13.755Z,4.17
2018-09-18T09:06:44.371Z,3.90
2018-09-18T09:09:15.565Z,3.80
2018-09-18T09:11:46.304Z,3.60
2018-09-18T09:14:16.900Z,4.00
2018-09-18T09:16:47.480Z,3.80
2018-09-18T09:19:17.867Z,4.20
2018-09-18T09:21:48.565Z,3.90
2018-09-18T09:24:19.076Z,4.20
2018-09-18T09:26:49.533Z,4.10
2018-09-18T09:29:20.051Z,3.80
2018-09-18T09:31:50.630Z,3.67
2018-09-18T09:34:20.996Z,4.13
2018-09-18T09:36:51.434Z,4.00
2018-09-18T09:39:21.988Z,4.20
2018-09-18T09:41:52.356Z,4.10
2018-09-18T09:44:23.116Z,3.60
2018-09-18T09:46:53.543Z,3.50
2018-09-18T09:49:24.322Z,3.93
2018-09-18T09:51:54.688Z,4.00
2018-09-18T09:54:25.104Z,3.50
2018-09-18T09:56:55.747Z,3.80
2018-09-18T09:59:26.292Z,3.70
2018-09-18T10:02:02.124Z,4.17
2018-09-18T10:04:32.530Z,4.20
2018-09-18T10:07:02.902Z,3.70
2018-09-18T10:09:33.295Z,4.10
2018-09-18T10:12:03.733Z,3.70
2018-09-18T10:14:34.092Z,3.70
2018-09-18T10:17:04.689Z,3.93
2018-09-18T10:19:35.076Z,3.80
2018-09-18T10:22:05.812Z,3.93
2018-09-18T10:24:36.325Z,4.53
2018-09-18T10:27:07.123Z,3.80
2018-09-18T10:29:37.602Z,3.90
2018-09-18T10:32:08.009Z,3.90
2018-09-18T10:34:38.576Z,3.90
2018-09-18T10:37:09.149Z,4.63
2018-09-18T10:39:39.704Z,4.10
2018-09-18T10:42:10.163Z,3.73
2018-09-18T10:44:40.683Z,3.80
2018-09-18T10:47:11.294Z,3.90
2018-09-18T10:49:41.835Z,3.73
2018-09-18T10:52:12.284Z,3.80
2018-09-18T10:54:42.641Z,4.00
2018-09-18T10:57:13.026Z,4.20
2018-09-18T10:59:43.465Z,5.03
2018-09-18T11:02:14.280Z,4.70
2018-09-18T11:04:44.813Z,4.63
2018-09-18T11:07:15.411Z,4.77
2018-09-18T11:09:46.027Z,5.27
2018-09-18T11:12:16.536Z,4.73
2018-09-18T11:14:47.125Z,4.77
2018-09-18T11:17:17.669Z,4.60
2018-09-18T11:19:48.267Z,4.87
2018-09-18T11:22:18.933Z,4.67
2018-09-18T11:24:49.617Z,4.53
2018-09-18T11:27:20.208Z,5.03
2018-09-18T11:29:50.789Z,5.23
2018-09-18T11:32:21.172Z,4.60
2018-09-18T11:34:51.753Z,4.23
2018-09-18T11:37:22.156Z,4.50
2018-09-18T11:39:52.548Z,4.33
2018-09-18T11:42:22.939Z,4.03
2018-09-18T11:44:53.332Z,4.37
2018-09-18T11:47:23.755Z,4.13
2018-09-18T11:49:54.134Z,4.33
2018-09-18T11:52:24.528Z,4.37
2018-09-18T11:54:54.901Z,4.20
2018-09-18T11:57:25.288Z,4.23
2018-09-18T11:59:55.674Z,3.67
2018-09-18T12:02:26.071Z,4.07
2018-09-18T12:04:56.473Z,4.00
2018-09-18T12:07:27.110Z,4.63
2018-09-18T12:09:57.706Z,3.67
2018-09-18T12:12:28.096Z,4.10
2018-09-18T12:14:58.462Z,3.53
2018-09-18T12:17:28.931Z,3.93
2018-09-18T12:19:59.435Z,4.10
2018-09-18T12:22:29.938Z,4.27
2018-09-18T12:25:00.435Z,4.03
2018-09-18T12:27:30.793Z,4.23
2018-09-18T12:30:01.376Z,3.70
2018-09-18T12:32:31.739Z,3.57
2018-09-18T12:35:02.177Z,2.93
2018-09-18T12:37:34.059Z,3.40
2018-09-18T12:40:06.187Z,3.30
2018-09-18T12:42:38.003Z,3.20
2018-09-18T12:45:08.962Z,2.90
2018-09-18T12:47:39.346Z,3.07
2018-09-18T12:50:10.067Z,2.90
2018-09-18T12:52:40.580Z,3.00
2018-09-18T12:55:10.954Z,2.90
2018-09-18T12:57:41.362Z,2.97
2018-09-18T13:00:11.967Z,2.90
2018-09-18T13:02:42.532Z,3.07
2018-09-18T13:05:12.892Z,2.87
2018-09-18T13:07:43.279Z,2.60
2018-09-18T13:10:13.671Z,3.07
2018-09-18T13:12:44.123Z,3.03
2018-09-18T13:15:14.701Z,2.87
2018-09-18T13:17:45.302Z,2.60
2018-09-18T13:20:15.876Z,3.10
2018-09-18T13:22:46.309Z,3.00
2018-09-18T13:25:16.868Z,2.93
2018-09-18T13:27:47.339Z,3.00
2018-09-18T13:30:17.865Z,3.47
2018-09-18T13:32:48.654Z,3.00
2018-09-18T13:35:19.133Z,3.47
2018-09-18T13:37:49.721Z,3.27
2018-09-18T13:40:20.108Z,3.20
2018-09-18T13:42:50.496Z,3.07
2018-09-18T13:45:20.887Z,3.10
2018-09-18T13:47:51.240Z,3.17
2018-09-18T13:50:21.682Z,3.00
2018-09-18T13:52:52.582Z,2.67
2018-09-18T13:55:23.391Z,2.60
2018-09-18T13:57:53.979Z,2.93
2018-09-18T14:00:24.352Z,3.00
2018-09-18T14:02:54.804Z,3.30
2018-09-18T14:05:25.372Z,3.17
2018-09-18T14:07:55.757Z,3.03
2018-09-18T14:10:26.140Z,3.00
2018-09-18T14:12:56.555Z,3.33
2018-09-18T14:15:26.919Z,3.40
2018-09-18T14:17:57.552Z,3.37
2018-09-18T14:20:27.912Z,3.10
2018-09-18T14:22:58.308Z,3.13
2018-09-18T14:25:28.716Z,3.10
2018-09-18T14:27:59.296Z,2.70
2018-09-18T14:30:29.658Z,2.57
2018-09-18T14:33:00.036Z,2.80
2018-09-18T14:35:30.408Z,3.00
2018-09-18T14:38:00.823Z,2.67
2018-09-18T14:40:31.434Z,2.47
2018-09-18T14:43:01.951Z,2.73
2018-09-18T14:45:32.311Z,2.60
2018-09-18T14:48:02.676Z,2.60
2018-09-18T14:50:33.064Z,2.70
2018-09-18T14:53:03.502Z,2.80
2018-09-18T14:55:33.910Z,3.03
2018-09-18T14:58:04.340Z,2.77
2018-09-18T15:00:34.715Z,2.63
2018-09-18T15:03:05.088Z,2.40
2018-09-18T15:05:35.444Z,2.40
2018-09-18T15:08:05.865Z,2.70
2018-09-18T15:10:36.215Z,2.67
2018-09-18T15:13:06.788Z,2.73
2018-09-18T15:15:37.245Z,2.47
2018-09-18T15:18:07.759Z,2.50
2018-09-18T15:20:38.152Z,2.77
2018-09-18T15:23:08.510Z,2.80
2018-09-18T15:25:38.907Z,2.40
2018-09-18T15:28:09.274Z,2.30
2018-09-18T15:30:39.652Z,2.40
2018-09-18T15:33:10.008Z,2.33
2018-09-18T15:35:40.386Z,1.77
2018-09-18T15:38:10.938Z,1.73
2018-09-18T15:40:41.492Z,1.83
2018-09-18T15:43:11.928Z,1.77
2018-09-18T15:45:42.537Z,1.83
2018-09-18T15:48:13.015Z,1.37
2018-09-18T15:50:43.364Z,1.60
2018-09-18T15:53:13.833Z,1.83
2018-09-18T15:55:44.188Z,1.50
2018-09-18T15:58:14.569Z,1.67
2018-09-18T16:00:44.947Z,1.77
2018-09-18T16:03:15.523Z,1.60
2018-09-18T16:05:45.911Z,2.07
2018-09-18T16:08:16.280Z,1.70
2018-09-18T16:10:46.662Z,2.00
2018-09-18T16:13:17.064Z,1.90
2018-09-18T16:15:47.470Z,2.20
2018-09-18T16:18:17.964Z,2.27
2018-09-18T16:20:48.312Z,2.13
2018-09-18T16:23:18.785Z,2.30
2018-09-18T16:25:49.812Z,2.03
2018-09-18T16:28:20.286Z,1.90
2018-09-18T16:30:50.776Z,1.90
2018-09-18T16:33:21.395Z,1.70
2018-09-18T16:35:51.889Z,1.93
2018-09-18T16:38:26.189Z,1.70
2018-09-18T16:40:59.467Z,1.60
2018-09-18T16:43:38.544Z,1.60
2018-09-18T16:46:10.471Z,1.63
2018-09-18T16:48:46.806Z,2.07
2018-09-18T16:51:19.984Z,1.80
2018-09-18T16:53:52.185Z,1.60
2018-09-18T16:56:23.903Z,1.33
2018-09-18T16:58:54.585Z,1.60
2018-09-18T17:01:24.977Z,1.70
2018-09-18T17:03:55.388Z,1.57
2018-09-18T17:06:25.792Z,1.67
2018-09-18T17:08:56.346Z,1.80
2018-09-18T17:11:26.732Z,1.57
2018-09-18T17:13:57.136Z,1.87
2018-09-18T17:16:27.503Z,1.70
2018-09-18T17:18:58.081Z,1.87
2018-09-18T17:21:28.427Z,1.83
2018-09-18T17:23:58.842Z,1.60
2018-09-18T17:26:29.227Z,1.63
2018-09-18T17:28:59.725Z,1.70
2018-09-18T17:31:30.184Z,1.90
2018-09-18T17:34:00.564Z,1.60
2018-09-18T17:36:30.920Z,1.70
2018-09-18T17:39:01.856Z,2.00
2018-09-18T17:41:32.252Z,1.60
2018-09-18T17:44:03.180Z,1.67
2018-09-18T17:46:33.739Z,2.03
2018-09-18T17:49:04.303Z,1.70
2018-09-18T17:51:34.662Z,1.97
2018-09-18T17:54:05.080Z,1.60
2018-09-18T17:56:35.471Z,2.10
2018-09-18T17:59:05.842Z,1.73
2018-09-18T18:01:36.211Z,1.80
2018-09-18T18:04:06.591Z,1.60
2018-09-18T18:06:36.941Z,1.60
2018-09-18T18:09:08.979Z,1.70
2018-09-18T18:11:39.789Z,1.67
2018-09-18T18:14:10.326Z,1.33
2018-09-18T18:16:40.683Z,1.60
2018-09-18T18:19:11.081Z,1.67
2018-09-18T18:21:41.779Z,1.77
2018-09-18T18:24:12.223Z,1.40
2018-09-18T18:26:42.776Z,1.70
2018-09-18T18:29:13.715Z,1.70
2018-09-18T18:31:44.114Z,2.10
2018-09-18T18:34:14.481Z,1.80
2018-09-18T18:36:45.096Z,2.00
2018-09-18T18:39:15.456Z,2.00
2018-09-18T18:41:45.846Z,1.70
2018-09-18T18:44:16.396Z,2.00
2018-09-18T18:46:46.796Z,2.13
2018-09-18T18:49:17.152Z,2.10
2018-09-18T18:51:47.536Z,1.97
2018-09-18T18:54:17.926Z,1.97
2018-09-18T18:56:48.300Z,2.00
2018-09-18T18:59:19.213Z,2.00
2018-09-18T19:01:49.580Z,2.07
2018-09-18T19:04:19.969Z,1.57
2018-09-18T19:06:50.622Z,2.50
2018-09-18T19:09:21.174Z,1.90
2018-09-18T19:11:51.542Z,1.57
2018-09-18T19:14:21.924Z,1.80
2018-09-18T19:16:52.284Z,1.90
2018-09-18T19:19:22.684Z,2.23
2018-09-18T19:21:53.099Z,2.10
2018-09-18T19:24:23.454Z,1.97
2018-09-18T19:26:53.867Z,2.10
2018-09-18T19:29:24.451Z,2.03
2018-09-18T19:31:54.848Z,2.23
2018-09-18T19:34:25.236Z,2.20
2018-09-18T19:36:55.624Z,2.30
2018-09-18T19:39:26.379Z,1.90
2018-09-18T19:41:56.799Z,2.30
2018-09-18T19:44:27.152Z,1.93
2018-09-18T19:46:57.844Z,2.20
2018-09-18T19:49:28.194Z,2.03
2018-09-18T19:51:58.576Z,2.07
2018-09-18T19:54:29.169Z,2.20
2018-09-18T19:56:59.531Z,2.00
2018-09-18T19:59:29.924Z,2.30
2018-09-18T20:02:00.315Z,2.27
2018-09-18T20:04:30.873Z,2.10
2018-09-18T20:07:01.260Z,2.53
2018-09-18T20:09:31.655Z,2.30
2018-09-18T20:12:02.202Z,2.40
2018-09-18T20:14:32.629Z,2.40
2018-09-18T20:17:02.998Z,2.13
2018-09-18T20:19:33.395Z,2.30
2018-09-18T20:22:03.802Z,2.43
2018-09-18T20:24:34.152Z,2.27
2018-09-18T20:30:09.628Z,2.73
2018-09-18T20:32:40.000Z,2.20
2018-09-18T20:35:10.425Z,2.40
2018-09-18T20:37:40.789Z,2.10
2018-09-18T20:40:11.187Z,2.80
2018-09-18T20:42:41.562Z,2.43
2018-09-18T20:45:11.982Z,2.50
2018-09-18T20:47:42.546Z,2.60
2018-09-18T20:50:12.921Z,2.43
2018-09-18T20:52:43.340Z,2.40
2018-09-18T20:55:13.741Z,2.60
2018-09-18T20:57:44.132Z,2.80
2018-09-18T21:00:14.558Z,2.80
2018-09-18T21:02:45.291Z,2.80
2018-09-18T21:05:15.914Z,2.20
2018-09-18T21:07:46.298Z,3.00
2018-09-18T21:10:21.400Z,2.70
2018-09-18T21:12:56.358Z,3.30
2018-09-18T21:15:31.219Z,3.00
2018-09-18T21:18:01.643Z,2.90
2018-09-18T21:20:32.222Z,3.17
2018-09-18T21:23:02.636Z,2.83
2018-09-18T21:25:57.036Z,3.07
2018-09-18T21:28:27.472Z,3.07
2018-09-18T21:30:57.903Z,3.03
2018-09-18T21:33:28.453Z,2.90
2018-09-18T21:35:59.242Z,2.80
2018-09-18T21:38:30.105Z,3.20
2018-09-18T21:41:00.612Z,2.93
2018-09-18T21:43:31.812Z,2.67
2018-09-18T21:46:02.394Z,2.90
2018-09-18T21:48:32.813Z,3.20
2018-09-18T21:51:03.545Z,2.90
2018-09-18T21:53:33.952Z,3.03
2018-09-18T21:56:04.363Z,2.70
2018-09-18T21:58:34.745Z,3.00
2018-09-18T22:01:06.255Z,3.17
2018-09-18T22:03:36.801Z,3.77
2018-09-18T22:06:07.211Z,3.30
2018-09-18T22:08:37.594Z,3.40
2018-09-18T22:11:08.026Z,3.27
2018-09-18T22:13:38.404Z,3.00
2018-09-18T22:16:09.178Z,3.00
2018-09-18T22:18:39.614Z,2.80
2018-09-18T22:21:10.033Z,3.37
2018-09-18T22:23:40.416Z,3.20
2018-09-18T22:26:10.832Z,3.10
2018-09-18T22:28:41.199Z,2.80
2018-09-18T22:31:11.588Z,3.03
2018-09-18T22:33:41.988Z,2.50
2018-09-18T22:36:12.662Z,3.30
2018-09-18T22:38:43.357Z,3.08
2018-09-18T22:41:13.725Z,2.83
2018-09-18T22:43:44.143Z,2.87
2018-09-18T22:46:14.845Z,3.15
2018-09-18T22:48:45.275Z,3.00
2018-09-18T22:51:15.990Z,2.95
2018-09-18T22:53:46.833Z,3.12
2018-09-18T22:56:17.246Z,3.53
2018-09-18T22:58:47.729Z,2.63
2018-09-18T23:01:18.131Z,3.00
2018-09-18T23:03:48.506Z,3.17
2018-09-18T23:06:19.183Z,3.45
2018-09-18T23:08:49.842Z,3.22
2018-09-18T23:11:20.867Z,3.60
2018-09-18T23:13:51.283Z,3.10
2018-09-18T23:16:21.949Z,3.50
2018-09-18T23:18:52.813Z,3.07
2018-09-18T23:21:23.631Z,3.45
2018-09-18T23:23:54.338Z,3.58
2018-09-18T23:26:24.997Z,3.42
2018-09-18T23:28:55.397Z,3.13
2018-09-18T23:31:26.262Z,3.20
2018-09-18T23:33:56.961Z,3.65
2018-09-18T23:36:27.620Z,3.58
2018-09-18T23:38:58.087Z,2.93
2018-09-18T23:41:28.963Z,2.98
2018-09-18T23:43:59.812Z,3.60
2018-09-18T23:46:30.532Z,3.47
2018-09-18T23:49:00.958Z,3.03
2018-09-18T23:51:31.378Z,3.07
2018-09-18T23:54:01.772Z,3.40
2018-09-18T23:56:32.456Z,3.20
2018-09-18T23:59:03.154Z,3.50
